createdAt,value
2022-10-02T00:00:01.903Z,27.77
2022-10-02T00:02:45.744Z,28.15
2022-10-02T00:05:41.361Z,28.12
2022-10-02T00:08:38.071Z,28.26
2022-10-02T00:11:28.413Z,28.16
2022-10-02T00:14:04.598Z,28.19
2022-10-02T00:16:43.724Z,28.17
2022-10-02T00:19:16.869Z,28.19
2022-10-02T00:21:51.448Z,28.19
2022-10-02T00:24:28.426Z,28.13
2022-10-02T00:27:32.119Z,28.33
2022-10-02T00:30:03.738Z,28.19
2022-10-02T00:32:38.050Z,28.27
2022-10-02T00:35:31.833Z,28.32
2022-10-02T00:38:12.982Z,28.15
2022-10-02T00:41:23.550Z,28.22
2022-10-02T00:44:14.036Z,28.29
2022-10-02T00:46:58.997Z,28.26
2022-10-02T00:50:09.379Z,28.42
2022-10-02T00:52:42.728Z,28.17
2022-10-02T00:55:21.770Z,28.27
2022-10-02T00:58:04.966Z,28.30
2022-10-02T01:00:34.146Z,28.25
2022-10-02T01:03:17.523Z,28.37
2022-10-02T01:05:47.626Z,28.26
2022-10-02T01:08:19.245Z,28.28
2022-10-02T01:10:49.373Z,28.21
2022-10-02T01:13:18.664Z,28.25
2022-10-02T01:15:54.692Z,28.38
2022-10-02T01:18:24.214Z,28.25
2022-10-02T01:20:59.681Z,28.19
2022-10-02T01:23:38.011Z,28.32
2022-10-02T01:26:08.983Z,28.41
2022-10-02T01:28:38.591Z,28.34
2022-10-02T01:31:11.726Z,28.38
2022-10-02T01:33:42.575Z,28.38
2022-10-02T01:36:14.027Z,28.47
2022-10-02T01:38:44.419Z,28.49
2022-10-02T01:41:16.108Z,28.56
2022-10-02T01:43:54.994Z,28.63
2022-10-02T01:46:43.805Z,28.58
2022-10-02T01:49:47.938Z,28.60
2022-10-02T01:53:03.052Z,28.76
2022-10-02T01:55:57.666Z,28.71
2022-10-02T01:58:51.122Z,28.79
2022-10-02T02:01:26.774Z,28.86
2022-10-02T02:04:20.905Z,28.98
2022-10-02T02:07:26.974Z,29.05
2022-10-02T02:10:18.921Z,29.10
2022-10-02T02:12:57.497Z,29.06
2022-10-02T02:15:47.586Z,29.01
2022-10-02T02:18:25.225Z,29.19
2022-10-02T02:21:00.130Z,29.15
2022-10-02T02:23:33.779Z,29.22
2022-10-02T02:26:09.651Z,29.25
2022-10-02T02:28:45.226Z,29.30
2022-10-02T02:31:20.359Z,29.36
2022-10-02T02:34:02.239Z,29.45
2022-10-02T02:36:38.137Z,29.50
2022-10-02T02:39:16.706Z,29.60
2022-10-02T02:41:51.309Z,29.58
2022-10-02T02:44:38.201Z,29.71
2022-10-02T02:47:14.292Z,29.73
2022-10-02T02:49:54.948Z,29.80
2022-10-02T02:52:31.558Z,29.81
2022-10-02T02:55:32.363Z,29.94
2022-10-02T02:58:20.515Z,29.83
2022-10-02T03:00:49.731Z,29.89
2022-10-02T03:03:19.002Z,29.81
2022-10-02T03:05:54.506Z,30.09
2022-10-02T03:08:33.316Z,30.16
2022-10-02T03:11:14.619Z,30.23
2022-10-02T03:14:02.538Z,30.18
2022-10-02T03:16:58.185Z,30.31
2022-10-02T03:19:52.059Z,30.42
2022-10-02T03:22:37.406Z,30.47
2022-10-02T03:25:15.702Z,30.62
2022-10-02T03:28:43.360Z,30.65
2022-10-02T03:31:14.395Z,30.56
2022-10-02T03:33:45.638Z,30.65
2022-10-02T03:36:19.090Z,30.74
2022-10-02T03:39:00.665Z,30.76
2022-10-02T03:41:35.963Z,30.75
2022-10-02T03:44:05.117Z,30.89
2022-10-02T03:46:34.441Z,30.97
2022-10-02T03:49:04.499Z,30.91
2022-10-02T03:51:33.546Z,30.96
2022-10-02T03:54:02.574Z,31.06
2022-10-02T03:56:53.043Z,31.35
2022-10-02T03:59:34.442Z,31.49
2022-10-02T04:02:08.121Z,31.50
2022-10-02T04:05:03.518Z,31.61
2022-10-02T04:07:41.422Z,31.73
2022-10-02T04:11:04.461Z,31.82
2022-10-02T04:13:52.039Z,31.85
2022-10-02T04:16:41.584Z,31.97
2022-10-02T04:19:19.980Z,31.88
2022-10-02T04:21:57.726Z,32.05
2022-10-02T04:24:45.998Z,32.04
2022-10-02T04:27:40.086Z,32.30
2022-10-02T04:30:16.121Z,32.29
2022-10-02T04:32:46.333Z,32.38
2022-10-02T04:35:27.898Z,32.60
2022-10-02T04:38:41.239Z,32.77
2022-10-02T04:41:20.582Z,32.90
2022-10-02T04:44:14.877Z,32.81
2022-10-02T04:46:56.905Z,32.89
2022-10-02T04:49:37.534Z,32.92
2022-10-02T04:52:25.260Z,33.08
2022-10-02T04:55:15.708Z,33.16
2022-10-02T04:57:58.037Z,33.45
2022-10-02T05:00:34.042Z,33.39
2022-10-02T05:03:23.705Z,33.50
2022-10-02T05:06:08.682Z,33.64
2022-10-02T05:08:40.824Z,33.59
2022-10-02T05:11:32.004Z,33.82
2022-10-02T05:14:12.672Z,33.89
2022-10-02T05:17:23.467Z,34.01
2022-10-02T05:20:40.769Z,34.04
2022-10-02T05:23:40.061Z,34.20
2022-10-02T05:26:29.608Z,34.30
2022-10-02T05:29:19.684Z,34.35
2022-10-02T05:31:56.759Z,34.22
2022-10-02T05:35:00.216Z,34.47
2022-10-02T05:37:50.314Z,34.42
2022-10-02T05:40:35.243Z,34.60
2022-10-02T05:43:13.661Z,34.70
2022-10-02T05:45:51.549Z,34.69
2022-10-02T05:48:23.316Z,34.81
2022-10-02T05:51:00.651Z,34.76
2022-10-02T05:53:37.996Z,34.94
2022-10-02T05:56:32.283Z,34.89
2022-10-02T05:59:30.488Z,34.96
2022-10-02T06:02:04.064Z,34.99
2022-10-02T06:04:41.060Z,35.11
2022-10-02T06:07:16.975Z,35.13
2022-10-02T06:10:02.136Z,35.23
2022-10-02T06:12:42.923Z,35.19
2022-10-02T06:15:28.066Z,35.34
2022-10-02T06:18:06.470Z,35.31
2022-10-02T06:20:47.864Z,35.31
2022-10-02T06:23:26.210Z,35.40
2022-10-02T06:26:11.654Z,35.40
2022-10-02T06:28:55.357Z,35.55
2022-10-02T06:31:42.145Z,35.67
2022-10-02T06:34:14.283Z,35.56
2022-10-02T06:36:49.154Z,35.78
2022-10-02T06:39:30.780Z,35.58
2022-10-02T06:42:25.518Z,35.85
2022-10-02T06:45:01.306Z,35.85
2022-10-02T06:47:39.762Z,35.83
2022-10-02T06:50:28.490Z,35.89
2022-10-02T06:53:08.244Z,35.74
2022-10-02T06:56:14.716Z,36.01
2022-10-02T06:58:49.276Z,35.78
2022-10-02T07:01:38.201Z,35.99
2022-10-02T07:04:35.572Z,36.05
2022-10-02T07:07:18.980Z,36.08
2022-10-02T07:09:53.731Z,36.03
2022-10-02T07:13:19.261Z,36.14
2022-10-02T07:16:08.874Z,36.00
2022-10-02T07:18:55.998Z,36.13
2022-10-02T07:21:37.581Z,36.04
2022-10-02T07:24:15.382Z,35.96
2022-10-02T07:27:13.767Z,36.07
2022-10-02T07:30:03.309Z,36.21
2022-10-02T07:32:48.905Z,36.22
2022-10-02T07:35:49.334Z,36.24
2022-10-02T07:38:44.258Z,36.22
2022-10-02T07:41:37.501Z,36.28
2022-10-02T07:44:21.919Z,36.41
2022-10-02T07:47:09.057Z,36.20
2022-10-02T07:50:06.150Z,36.31
2022-10-02T07:52:59.152Z,36.55
2022-10-02T07:55:28.994Z,36.40
2022-10-02T07:58:11.142Z,36.43
2022-10-02T08:01:04.580Z,36.55
2022-10-02T08:03:40.053Z,36.43
2022-10-02T08:06:09.990Z,36.27
2022-10-02T08:09:08.074Z,36.56
2022-10-02T08:11:49.359Z,36.49
2022-10-02T08:14:44.107Z,36.48
2022-10-02T08:17:23.004Z,36.64
2022-10-02T08:19:53.620Z,36.51
2022-10-02T08:22:39.379Z,36.60
2022-10-02T08:25:17.567Z,36.62
2022-10-02T08:28:10.197Z,36.55
2022-10-02T08:30:39.357Z,36.44
2022-10-02T08:33:20.999Z,36.44
2022-10-02T08:36:10.957Z,36.59
2022-10-02T08:39:17.914Z,36.55
2022-10-02T08:42:24.581Z,36.60
2022-10-02T08:45:36.757Z,36.58
2022-10-02T08:48:29.755Z,36.57
2022-10-02T08:51:35.617Z,36.62
2022-10-02T08:54:29.606Z,36.51
2022-10-02T08:57:13.595Z,36.51
2022-10-02T08:59:54.197Z,36.51
2022-10-02T09:02:40.922Z,36.47
2022-10-02T09:05:31.090Z,36.44
2022-10-02T09:08:15.147Z,36.48
2022-10-02T09:10:53.701Z,36.42
2022-10-02T09:13:50.605Z,36.47
2022-10-02T09:16:35.323Z,36.50
2022-10-02T09:19:43.052Z,36.40
2022-10-02T09:22:33.699Z,36.29
2022-10-02T09:25:38.520Z,36.16
2022-10-02T09:28:41.400Z,36.24
2022-10-02T09:31:31.326Z,36.03
2022-10-02T09:34:06.510Z,36.05
2022-10-02T09:37:12.078Z,36.13
2022-10-02T09:40:07.167Z,36.13
2022-10-02T09:43:03.219Z,36.06
2022-10-02T09:45:46.976Z,36.06
2022-10-02T09:48:46.451Z,36.06
2022-10-02T09:51:46.155Z,36.01
2022-10-02T09:54:33.354Z,36.08
2022-10-02T09:57:12.652Z,35.96
2022-10-02T10:00:18.214Z,36.06
2022-10-02T10:03:19.518Z,35.98
2022-10-02T10:06:20.451Z,35.90
2022-10-02T10:09:12.344Z,35.90
2022-10-02T10:11:48.968Z,35.82
2022-10-02T10:14:24.868Z,35.75
2022-10-02T10:17:57.014Z,35.85
2022-10-02T10:20:52.962Z,35.79
2022-10-02T10:23:52.195Z,35.78
2022-10-02T10:26:45.101Z,35.76
2022-10-02T10:29:23.009Z,35.75
2022-10-02T10:32:32.224Z,35.68
2022-10-02T10:35:21.175Z,35.64
2022-10-02T10:38:27.224Z,35.52
2022-10-02T10:41:14.603Z,35.49
2022-10-02T10:44:05.145Z,35.59
2022-10-02T10:46:57.333Z,35.53
2022-10-02T10:49:56.215Z,35.59
2022-10-02T10:52:56.044Z,35.51
2022-10-02T10:55:53.830Z,35.44
2022-10-02T10:58:35.858Z,35.39
2022-10-02T11:01:43.912Z,35.32
2022-10-02T11:04:44.802Z,35.39
2022-10-02T11:07:47.314Z,35.29
2022-10-02T11:10:48.053Z,35.16
2022-10-02T11:13:35.457Z,35.29
2022-10-02T11:16:23.777Z,35.28
2022-10-02T11:19:02.693Z,35.11
2022-10-02T11:21:46.176Z,35.10
2022-10-02T11:24:28.288Z,34.91
2022-10-02T11:27:15.480Z,35.17
2022-10-02T11:29:49.838Z,34.96
2022-10-02T11:32:55.606Z,34.98
2022-10-02T11:36:03.147Z,34.92
2022-10-02T11:38:51.202Z,34.86
2022-10-02T11:41:48.526Z,34.95
2022-10-02T11:44:36.367Z,34.89
2022-10-02T11:47:34.757Z,34.73
2022-10-02T11:50:30.239Z,34.87
2022-10-02T11:53:20.920Z,34.78
2022-10-02T11:56:12.757Z,34.79
2022-10-02T11:59:02.222Z,34.66
2022-10-02T12:01:34.242Z,34.43
2022-10-02T12:04:19.783Z,34.68
2022-10-02T12:07:12.200Z,34.33
2022-10-02T12:09:55.694Z,34.43
2022-10-02T12:12:58.329Z,34.46
2022-10-02T12:15:45.385Z,34.47
2022-10-02T12:18:45.271Z,34.27
2022-10-02T12:21:41.135Z,34.11
2022-10-02T12:25:16.630Z,34.19
2022-10-02T12:28:16.360Z,34.05
2022-10-02T12:31:13.226Z,34.04
2022-10-02T12:34:28.872Z,34.04
2022-10-02T12:37:08.210Z,34.00
2022-10-02T12:39:46.212Z,33.86
2022-10-02T12:42:43.876Z,33.86
2022-10-02T12:45:33.802Z,33.69
2022-10-02T12:48:34.359Z,33.64
2022-10-02T12:51:34.788Z,33.55
2022-10-02T12:54:19.649Z,33.51
2022-10-02T12:57:39.524Z,33.44
2022-10-02T13:00:17.416Z,33.33
2022-10-02T13:03:06.552Z,33.19
2022-10-02T13:05:52.694Z,33.28
2022-10-02T13:08:43.644Z,33.26
2022-10-02T13:11:28.895Z,33.21
2022-10-02T13:14:17.812Z,33.13
2022-10-02T13:16:50.127Z,33.13
2022-10-02T13:19:50.816Z,33.19
2022-10-02T13:22:41.648Z,33.15
2022-10-02T13:25:26.541Z,33.09
2022-10-02T13:28:08.687Z,32.99
2022-10-02T13:30:50.706Z,32.92
2022-10-02T13:34:14.103Z,32.89
2022-10-02T13:37:14.651Z,32.81
2022-10-02T13:40:03.133Z,32.70
2022-10-02T13:43:04.513Z,32.65
2022-10-02T13:45:54.760Z,32.52
2022-10-02T13:48:34.400Z,32.43
2022-10-02T13:51:33.139Z,32.43
2022-10-02T13:54:18.142Z,32.40
2022-10-02T13:57:11.822Z,32.32
2022-10-02T14:00:24.982Z,32.29
2022-10-02T14:03:08.282Z,32.17
2022-10-02T14:05:58.239Z,32.15
2022-10-02T14:08:41.020Z,32.00
2022-10-02T14:11:35.865Z,32.00
2022-10-02T14:14:32.486Z,31.97
2022-10-02T14:17:16.602Z,31.94
2022-10-02T14:20:20.034Z,31.92
2022-10-02T14:23:04.293Z,31.74
2022-10-02T14:26:17.853Z,31.88
2022-10-02T14:29:50.200Z,31.84
2022-10-02T14:32:30.669Z,31.78
2022-10-02T14:35:20.907Z,31.70
2022-10-02T14:38:09.111Z,31.68
2022-10-02T14:40:58.494Z,31.58
2022-10-02T14:43:47.204Z,31.59
2022-10-02T14:47:03.260Z,31.62
2022-10-02T14:50:02.829Z,31.55
2022-10-02T14:53:01.617Z,31.50
2022-10-02T14:55:39.645Z,31.21
2022-10-02T14:58:46.914Z,31.17
2022-10-02T15:01:24.269Z,31.15
2022-10-02T15:04:14.910Z,31.07
2022-10-02T15:07:16.488Z,31.16
2022-10-02T15:10:03.742Z,31.12
2022-10-02T15:13:17.769Z,31.14
2022-10-02T15:16:17.729Z,31.05
2022-10-02T15:18:56.911Z,31.02
2022-10-02T15:21:48.680Z,31.04
2022-10-02T15:24:44.636Z,31.09
2022-10-02T15:27:40.236Z,31.04
2022-10-02T15:30:21.905Z,31.00
2022-10-02T15:32:57.945Z,30.96
2022-10-02T15:35:32.655Z,30.88
2022-10-02T15:38:30.587Z,31.03
2022-10-02T15:41:14.315Z,31.03
2022-10-02T15:44:26.479Z,31.02
2022-10-02T15:47:36.833Z,31.02
2022-10-02T15:50:50.118Z,31.02
2022-10-02T15:53:57.426Z,30.99
2022-10-02T15:56:52.753Z,30.98
2022-10-02T15:59:31.131Z,30.66
2022-10-02T16:02:32.388Z,30.74
2022-10-02T16:05:15.035Z,30.59
2022-10-02T16:08:10.071Z,30.68
2022-10-02T16:10:56.105Z,30.43
2022-10-02T16:13:43.598Z,30.54
2022-10-02T16:16:21.180Z,30.51
2022-10-02T16:19:10.176Z,30.38
2022-10-02T16:22:17.805Z,30.32
2022-10-02T16:24:53.567Z,30.08
2022-10-02T16:27:33.668Z,30.10
2022-10-02T16:30:36.295Z,30.21
2022-10-02T16:33:15.880Z,30.16
2022-10-02T16:36:31.120Z,30.28
2022-10-02T16:39:20.391Z,30.41
2022-10-02T16:42:15.908Z,30.38
2022-10-02T16:45:14.063Z,30.36
2022-10-02T16:47:59.952Z,30.38
2022-10-02T16:51:07.984Z,30.26
2022-10-02T16:53:43.303Z,30.23
2022-10-02T16:56:35.985Z,30.11
2022-10-02T16:59:11.264Z,30.35
2022-10-02T17:02:13.089Z,30.26
2022-10-02T17:04:59.507Z,30.27
2022-10-02T17:07:44.434Z,30.20
2022-10-02T17:10:35.073Z,30.23
2022-10-02T17:13:15.520Z,30.11
2022-10-02T17:15:57.649Z,30.12
2022-10-02T17:18:47.096Z,30.08
2022-10-02T17:21:25.517Z,29.79
2022-10-02T17:23:59.880Z,29.80
2022-10-02T17:26:50.788Z,29.74
2022-10-02T17:29:43.553Z,29.95
2022-10-02T17:32:13.060Z,29.74
2022-10-02T17:34:51.811Z,29.92
2022-10-02T17:37:51.641Z,29.74
2022-10-02T17:40:29.445Z,29.69
2022-10-02T17:43:12.898Z,29.60
2022-10-02T17:46:04.250Z,29.51
2022-10-02T17:49:16.208Z,29.57
2022-10-02T17:51:59.238Z,29.47
2022-10-02T17:55:24.681Z,29.65
2022-10-02T17:58:20.800Z,29.65
2022-10-02T18:01:34.713Z,29.66
2022-10-02T18:04:33.282Z,29.61
2022-10-02T18:07:22.604Z,29.43
2022-10-02T18:10:04.651Z,29.51
2022-10-02T18:12:52.838Z,29.45
2022-10-02T18:15:30.899Z,29.42
2022-10-02T18:18:32.306Z,29.42
2022-10-02T18:21:49.783Z,29.46
2022-10-02T18:24:45.102Z,29.38
2022-10-02T18:27:45.083Z,29.33
2022-10-02T18:30:21.398Z,29.23
2022-10-02T18:33:03.307Z,29.26
2022-10-02T18:35:48.707Z,29.22
2022-10-02T18:38:27.433Z,29.00
2022-10-02T18:41:37.301Z,29.10
2022-10-02T18:44:44.467Z,29.06
2022-10-02T18:47:37.183Z,29.08
2022-10-02T18:50:24.400Z,29.03
2022-10-02T18:53:16.902Z,29.06
2022-10-02T18:55:49.483Z,28.87
2022-10-02T18:58:33.685Z,28.93
2022-10-02T19:01:14.607Z,28.76
2022-10-02T19:04:05.371Z,28.98
2022-10-02T19:06:54.721Z,28.79
2022-10-02T19:09:29.358Z,28.85
2022-10-02T19:12:13.551Z,28.75
2022-10-02T19:14:48.825Z,28.75
2022-10-02T19:17:25.616Z,28.73
2022-10-02T19:19:56.812Z,28.61
2022-10-02T19:22:39.529Z,28.75
2022-10-02T19:25:21.360Z,28.81
2022-10-02T19:27:58.364Z,28.76
2022-10-02T19:30:31.352Z,28.78
2022-10-02T19:33:10.358Z,28.91
2022-10-02T19:35:45.428Z,28.87
2022-10-02T19:38:34.023Z,28.86
2022-10-02T19:41:10.919Z,28.83
2022-10-02T19:43:58.875Z,28.79
2022-10-02T19:46:56.045Z,28.67
2022-10-02T19:49:31.421Z,28.66
2022-10-02T19:52:00.485Z,28.56
2022-10-02T19:54:38.894Z,28.73
2022-10-02T19:57:17.352Z,28.71
2022-10-02T19:59:53.311Z,28.65
2022-10-02T20:02:42.313Z,28.56
2022-10-02T20:05:22.513Z,28.56
2022-10-02T20:07:57.065Z,28.65
2022-10-02T20:11:01.141Z,28.72
2022-10-02T20:13:51.277Z,28.69
2022-10-02T20:16:44.555Z,28.64
2022-10-02T20:19:46.246Z,28.79
2022-10-02T20:22:18.815Z,28.71
2022-10-02T20:25:09.842Z,28.67
2022-10-02T20:27:39.049Z,28.44
2022-10-02T20:30:18.074Z,28.48
2022-10-02T20:32:53.808Z,28.50
2022-10-02T20:35:36.001Z,28.56
2022-10-02T20:38:12.239Z,28.52
2022-10-02T20:40:52.726Z,28.51
2022-10-02T20:43:33.815Z,28.60
2022-10-02T20:46:20.869Z,28.69
2022-10-02T20:49:09.433Z,28.66
2022-10-02T20:52:14.839Z,28.64
2022-10-02T20:54:55.277Z,28.68
2022-10-02T20:58:07.010Z,28.75
2022-10-02T21:01:13.880Z,28.74
2022-10-02T21:04:01.045Z,28.62
2022-10-02T21:06:54.864Z,28.78
2022-10-02T21:09:35.737Z,28.75
2022-10-02T21:12:20.108Z,28.69
2022-10-02T21:14:54.520Z,28.38
2022-10-02T21:17:47.965Z,28.46
2022-10-02T21:20:51.959Z,28.28
2022-10-02T21:23:33.355Z,28.33
2022-10-02T21:26:14.963Z,28.04
2022-10-02T21:28:47.160Z,27.98
2022-10-02T21:31:28.647Z,28.14
2022-10-02T21:34:10.311Z,28.02
2022-10-02T21:37:23.277Z,28.19
2022-10-02T21:40:30.070Z,28.31
2022-10-02T21:43:18.677Z,28.38
2022-10-02T21:46:09.369Z,28.40
2022-10-02T21:49:21.063Z,28.39
2022-10-02T21:52:12.487Z,28.38
2022-10-02T21:55:03.927Z,28.32
2022-10-02T21:57:43.631Z,28.40
2022-10-02T22:00:38.179Z,28.30
2022-10-02T22:03:11.432Z,28.04
2022-10-02T22:05:40.660Z,28.03
2022-10-02T22:08:22.195Z,28.22
2022-10-02T22:10:56.385Z,28.20
2022-10-02T22:13:38.286Z,28.20
2022-10-02T22:16:35.574Z,28.27
2022-10-02T22:19:27.607Z,28.13
2022-10-02T22:22:14.812Z,27.82
2022-10-02T22:25:05.419Z,28.03
2022-10-02T22:27:40.606Z,28.01
2022-10-02T22:30:23.926Z,28.04
2022-10-02T22:33:17.661Z,28.03
2022-10-02T22:35:56.603Z,27.97
2022-10-02T22:38:37.310Z,28.09
2022-10-02T22:41:34.193Z,27.98
2022-10-02T22:44:26.792Z,27.88
2022-10-02T22:47:13.251Z,27.91
2022-10-02T22:49:52.133Z,27.93
2022-10-02T22:52:30.401Z,28.00
2022-10-02T22:55:15.866Z,28.02
2022-10-02T22:57:59.790Z,27.82
2022-10-02T23:00:52.127Z,27.80
2022-10-02T23:03:47.560Z,28.07
2022-10-02T23:06:31.480Z,27.75
2022-10-02T23:09:00.494Z,27.76
2022-10-02T23:11:40.431Z,27.82
2022-10-02T23:14:21.723Z,27.78
2022-10-02T23:17:01.872Z,27.74
2022-10-02T23:19:43.741Z,27.81
2022-10-02T23:22:23.590Z,27.66
2022-10-02T23:25:01.402Z,27.50
2022-10-02T23:27:48.768Z,27.59
2022-10-02T23:30:23.189Z,27.65
2022-10-02T23:33:18.416Z,27.72
2022-10-02T23:36:02.003Z,27.83
2022-10-02T23:39:13.518Z,27.93
2022-10-02T23:41:56.383Z,27.75
2022-10-02T23:44:58.828Z,27.69
2022-10-02T23:47:45.971Z,27.65
2022-10-02T23:50:42.297Z,27.77
2022-10-02T23:53:38.976Z,27.64
2022-10-02T23:56:41.386Z,27.61
2022-10-02T23:59:27.868Z,27.60
